sensor_id;sensor_type;location;lat;lon;timestamp;temperature;humidity
25482;DHT22;13395;50.752;4.268;2023-07-30T00:00:44;17.40;99.90
25482;DHT22;13395;50.752;4.268;2023-07-30T00:03:09;17.30;99.90
25482;DHT22;13395;50.752;4.268;2023-07-30T00:05:35;17.30;99.90
25482;DHT22;13395;50.752;4.268;2023-07-30T00:08:00;17.30;99.90
25482;DHT22;13395;50.752;4.268;2023-07-30T00:10:26;17.30;99.90
25482;DHT22;13395;50.752;4.268;2023-07-30T00:12:52;17.40;99.90
25482;DHT22;13395;50.752;4.268;2023-07-30T00:15:17;17.40;99.90
25482;DHT22;13395;50.752;4.268;2023-07-30T00:17:43;17.40;99.90
25482;DHT22;13395;50.752;4.268;2023-07-30T00:20:09;17.40;99.90
25482;DHT22;13395;50.752;4.268;2023-07-30T00:22:35;17.50;99.90
25482;DHT22;13395;50.752;4.268;2023-07-30T00:25:01;17.50;99.90
25482;DHT22;13395;50.752;4.268;2023-07-30T00:27:26;17.70;99.90
25482;DHT22;13395;50.752;4.268;2023-07-30T00:29:52;17.70;99.90
25482;DHT22;13395;50.752;4.268;2023-07-30T00:32:17;17.70;99.90
25482;DHT22;13395;50.752;4.268;2023-07-30T00:34:43;17.80;99.90
25482;DHT22;13395;50.752;4.268;2023-07-30T00:37:09;17.90;99.90
25482;DHT22;13395;50.752;4.268;2023-07-30T00:39:35;17.90;99.90
25482;DHT22;13395;50.752;4.268;2023-07-30T00:42:00;17.90;99.90
25482;DHT22;13395;50.752;4.268;2023-07-30T00:44:26;18.00;99.90
25482;DHT22;13395;50.752;4.268;2023-07-30T00:46:52;18.00;99.90
25482;DHT22;13395;50.752;4.268;2023-07-30T00:49:18;18.00;99.90
25482;DHT22;13395;50.752;4.268;2023-07-30T00:51:44;18.10;99.90
25482;DHT22;13395;50.752;4.268;2023-07-30T00:54:10;18.00;99.90
25482;DHT22;13395;50.752;4.268;2023-07-30T00:56:36;18.20;99.90
25482;DHT22;13395;50.752;4.268;2023-07-30T00:59:02;18.00;99.90
25482;DHT22;13395;50.752;4.268;2023-07-30T01:04:03;18.10;99.90
25482;DHT22;13395;50.752;4.268;2023-07-30T01:06:29;18.20;99.90
25482;DHT22;13395;50.752;4.268;2023-07-30T01:08:55;18.20;99.90
25482;DHT22;13395;50.752;4.268;2023-07-30T01:11:21;18.10;99.90
25482;DHT22;13395;50.752;4.268;2023-07-30T01:13:46;18.10;99.90
25482;DHT22;13395;50.752;4.268;2023-07-30T01:16:12;18.00;99.90
25482;DHT22;13395;50.752;4.268;2023-07-30T01:18:38;18.10;99.90
25482;DHT22;13395;50.752;4.268;2023-07-30T01:21:03;18.10;99.90
25482;DHT22;13395;50.752;4.268;2023-07-30T01:23:29;18.10;99.90
25482;DHT22;13395;50.752;4.268;2023-07-30T01:26:06;18.10;99.90
25482;DHT22;13395;50.752;4.268;2023-07-30T01:28:36;18.20;99.90
25482;DHT22;13395;50.752;4.268;2023-07-30T01:31:03;18.20;99.90
25482;DHT22;13395;50.752;4.268;2023-07-30T01:33:30;18.10;99.90
25482;DHT22;13395;50.752;4.268;2023-07-30T01:35:57;18.10;99.90
25482;DHT22;13395;50.752;4.268;2023-07-30T01:38:24;18.20;99.90
25482;DHT22;13395;50.752;4.268;2023-07-30T01:40:50;18.30;99.90
25482;DHT22;13395;50.752;4.268;2023-07-30T01:43:16;18.20;99.90
25482;DHT22;13395;50.752;4.268;2023-07-30T01:45:42;18.20;99.90
25482;DHT22;13395;50.752;4.268;2023-07-30T01:48:08;18.20;99.90
25482;DHT22;13395;50.752;4.268;2023-07-30T01:50:34;18.20;99.90
25482;DHT22;13395;50.752;4.268;2023-07-30T01:52:59;18.00;99.90
25482;DHT22;13395;50.752;4.268;2023-07-30T01:55:25;18.00;99.90
25482;DHT22;13395;50.752;4.268;2023-07-30T01:57:50;18.00;99.90
25482;DHT22;13395;50.752;4.268;2023-07-30T02:00:16;18.10;99.90
25482;DHT22;13395;50.752;4.268;2023-07-30T02:02:41;18.10;99.90
25482;DHT22;13395;50.752;4.268;2023-07-30T02:05:07;18.10;99.90
25482;DHT22;13395;50.752;4.268;2023-07-30T02:07:33;18.00;99.90
25482;DHT22;13395;50.752;4.268;2023-07-30T02:09:58;17.90;99.90
25482;DHT22;13395;50.752;4.268;2023-07-30T02:12:24;17.90;99.90
25482;DHT22;13395;50.752;4.268;2023-07-30T02:14:49;17.90;99.90
25482;DHT22;13395;50.752;4.268;2023-07-30T02:17:15;18.00;99.90
25482;DHT22;13395;50.752;4.268;2023-07-30T02:19:42;17.90;99.90
25482;DHT22;13395;50.752;4.268;2023-07-30T02:22:07;17.90;99.90
25482;DHT22;13395;50.752;4.268;2023-07-30T02:24:33;18.00;99.90
25482;DHT22;13395;50.752;4.268;2023-07-30T02:26:58;17.90;99.90
25482;DHT22;13395;50.752;4.268;2023-07-30T02:29:24;17.90;99.90
25482;DHT22;13395;50.752;4.268;2023-07-30T02:31:50;17.80;99.90
25482;DHT22;13395;50.752;4.268;2023-07-30T02:34:16;17.70;99.90
25482;DHT22;13395;50.752;4.268;2023-07-30T02:36:41;17.70;99.90
25482;DHT22;13395;50.752;4.268;2023-07-30T02:39:07;17.80;99.90
25482;DHT22;13395;50.752;4.268;2023-07-30T02:41:33;17.60;99.90
25482;DHT22;13395;50.752;4.268;2023-07-30T02:43:59;17.60;99.90
25482;DHT22;13395;50.752;4.268;2023-07-30T02:46:24;17.60;99.90
25482;DHT22;13395;50.752;4.268;2023-07-30T02:48:50;17.70;99.90
25482;DHT22;13395;50.752;4.268;2023-07-30T02:51:15;17.70;99.90
25482;DHT22;13395;50.752;4.268;2023-07-30T02:53:43;17.60;99.90
25482;DHT22;13395;50.752;4.268;2023-07-30T02:56:09;17.60;99.90
25482;DHT22;13395;50.752;4.268;2023-07-30T02:58:35;17.60;99.90
25482;DHT22;13395;50.752;4.268;2023-07-30T03:01:07;17.60;99.90
25482;DHT22;13395;50.752;4.268;2023-07-30T03:03:33;17.50;99.90
25482;DHT22;13395;50.752;4.268;2023-07-30T03:05:58;17.50;99.90
25482;DHT22;13395;50.752;4.268;2023-07-30T03:08:24;17.50;99.90
25482;DHT22;13395;50.752;4.268;2023-07-30T03:10:50;17.60;99.90
25482;DHT22;13395;50.752;4.268;2023-07-30T03:13:15;17.50;99.90
25482;DHT22;13395;50.752;4.268;2023-07-30T03:15:41;17.50;99.90
25482;DHT22;13395;50.752;4.268;2023-07-30T03:18:06;17.50;99.90
25482;DHT22;13395;50.752;4.268;2023-07-30T03:20:32;17.40;99.90
25482;DHT22;13395;50.752;4.268;2023-07-30T03:22:57;17.40;99.90
25482;DHT22;13395;50.752;4.268;2023-07-30T03:25:23;17.40;99.90
25482;DHT22;13395;50.752;4.268;2023-07-30T03:27:49;17.30;99.90
25482;DHT22;13395;50.752;4.268;2023-07-30T03:30:14;17.40;99.90
25482;DHT22;13395;50.752;4.268;2023-07-30T03:32:40;17.20;99.90
25482;DHT22;13395;50.752;4.268;2023-07-30T03:35:06;17.10;99.90
25482;DHT22;13395;50.752;4.268;2023-07-30T03:37:32;17.10;99.90
25482;DHT22;13395;50.752;4.268;2023-07-30T03:39:57;17.00;99.90
25482;DHT22;13395;50.752;4.268;2023-07-30T03:42:23;17.00;99.90
25482;DHT22;13395;50.752;4.268;2023-07-30T03:44:48;16.90;99.90
25482;DHT22;13395;50.752;4.268;2023-07-30T03:47:15;16.90;99.90
25482;DHT22;13395;50.752;4.268;2023-07-30T03:49:40;16.90;99.90
25482;DHT22;13395;50.752;4.268;2023-07-30T03:52:06;16.90;99.90
25482;DHT22;13395;50.752;4.268;2023-07-30T03:54:32;16.80;99.90
25482;DHT22;13395;50.752;4.268;2023-07-30T03:56:57;16.80;99.90
25482;DHT22;13395;50.752;4.268;2023-07-30T03:59:23;16.80;99.90
25482;DHT22;13395;50.752;4.268;2023-07-30T04:01:49;16.80;99.90
25482;DHT22;13395;50.752;4.268;2023-07-30T04:04:15;16.80;99.90
25482;DHT22;13395;50.752;4.268;2023-07-30T04:06:40;16.80;99.90
25482;DHT22;13395;50.752;4.268;2023-07-30T04:09:06;16.80;99.90
25482;DHT22;13395;50.752;4.268;2023-07-30T04:11:31;16.80;99.90
25482;DHT22;13395;50.752;4.268;2023-07-30T04:13:57;16.80;99.90
25482;DHT22;13395;50.752;4.268;2023-07-30T04:16:22;16.80;99.90
25482;DHT22;13395;50.752;4.268;2023-07-30T04:18:48;16.70;99.90
25482;DHT22;13395;50.752;4.268;2023-07-30T04:21:13;16.70;99.90
25482;DHT22;13395;50.752;4.268;2023-07-30T04:23:40;16.80;99.90
25482;DHT22;13395;50.752;4.268;2023-07-30T04:26:06;16.80;99.90
25482;DHT22;13395;50.752;4.268;2023-07-30T04:28:32;17.00;99.90
25482;DHT22;13395;50.752;4.268;2023-07-30T04:30:58;16.90;99.90
25482;DHT22;13395;50.752;4.268;2023-07-30T04:33:23;16.80;99.90
25482;DHT22;13395;50.752;4.268;2023-07-30T04:35:49;16.90;99.90
25482;DHT22;13395;50.752;4.268;2023-07-30T04:38:14;16.80;99.90
25482;DHT22;13395;50.752;4.268;2023-07-30T04:40:40;16.70;99.90
25482;DHT22;13395;50.752;4.268;2023-07-30T04:43:06;16.60;99.90
25482;DHT22;13395;50.752;4.268;2023-07-30T05:16:36;17.20;99.90
25482;DHT22;13395;50.752;4.268;2023-07-30T05:24:14;17.40;99.90
25482;DHT22;13395;50.752;4.268;2023-07-30T05:26:39;17.40;99.90
25482;DHT22;13395;50.752;4.268;2023-07-30T05:29:05;17.40;99.90
25482;DHT22;13395;50.752;4.268;2023-07-30T05:31:30;17.50;99.90
25482;DHT22;13395;50.752;4.268;2023-07-30T05:33:56;17.40;99.90
25482;DHT22;13395;50.752;4.268;2023-07-30T05:36:22;17.40;99.90
25482;DHT22;13395;50.752;4.268;2023-07-30T05:38:47;17.50;99.90
25482;DHT22;13395;50.752;4.268;2023-07-30T05:41:13;17.50;99.90
25482;DHT22;13395;50.752;4.268;2023-07-30T05:43:38;17.50;99.90
25482;DHT22;13395;50.752;4.268;2023-07-30T05:46:04;17.50;99.90
25482;DHT22;13395;50.752;4.268;2023-07-30T05:48:29;17.60;99.90
25482;DHT22;13395;50.752;4.268;2023-07-30T05:50:55;17.70;99.90
25482;DHT22;13395;50.752;4.268;2023-07-30T05:53:21;17.70;99.90
25482;DHT22;13395;50.752;4.268;2023-07-30T05:55:47;17.50;99.90
25482;DHT22;13395;50.752;4.268;2023-07-30T06:03:23;17.60;99.90
25482;DHT22;13395;50.752;4.268;2023-07-30T06:05:49;17.60;99.90
25482;DHT22;13395;50.752;4.268;2023-07-30T06:08:14;17.60;99.90
25482;DHT22;13395;50.752;4.268;2023-07-30T06:10:40;17.60;99.90
25482;DHT22;13395;50.752;4.268;2023-07-30T06:13:06;17.70;99.90
25482;DHT22;13395;50.752;4.268;2023-07-30T06:15:32;17.70;99.90
25482;DHT22;13395;50.752;4.268;2023-07-30T06:17:58;17.70;99.90
25482;DHT22;13395;50.752;4.268;2023-07-30T06:43:42;18.30;99.90
25482;DHT22;13395;50.752;4.268;2023-07-30T06:48:44;18.30;99.90
25482;DHT22;13395;50.752;4.268;2023-07-30T06:51:10;18.10;99.90
25482;DHT22;13395;50.752;4.268;2023-07-30T06:53:38;18.10;99.90
25482;DHT22;13395;50.752;4.268;2023-07-30T06:56:03;18.30;99.90
25482;DHT22;13395;50.752;4.268;2023-07-30T06:58:29;18.70;99.90
25482;DHT22;13395;50.752;4.268;2023-07-30T07:03:30;19.60;99.90
25482;DHT22;13395;50.752;4.268;2023-07-30T07:05:56;20.50;99.90
25482;DHT22;13395;50.752;4.268;2023-07-30T07:10:57;22.00;99.90
25482;DHT22;13395;50.752;4.268;2023-07-30T07:13:22;22.10;99.90
25482;DHT22;13395;50.752;4.268;2023-07-30T07:15:48;22.70;99.90
25482;DHT22;13395;50.752;4.268;2023-07-30T07:18:13;23.20;99.90
25482;DHT22;13395;50.752;4.268;2023-07-30T07:20:39;23.80;99.90
25482;DHT22;13395;50.752;4.268;2023-07-30T07:23:05;23.90;99.90
25482;DHT22;13395;50.752;4.268;2023-07-30T07:25:30;23.20;99.90
25482;DHT22;13395;50.752;4.268;2023-07-30T07:27:56;22.80;99.90
25482;DHT22;13395;50.752;4.268;2023-07-30T07:30:21;22.70;99.90
25482;DHT22;13395;50.752;4.268;2023-07-30T07:32:47;22.70;99.90
25482;DHT22;13395;50.752;4.268;2023-07-30T07:35:16;22.50;99.90
25482;DHT22;13395;50.752;4.268;2023-07-30T07:37:43;21.90;99.90
25482;DHT22;13395;50.752;4.268;2023-07-30T07:40:09;21.50;99.90
25482;DHT22;13395;50.752;4.268;2023-07-30T07:42:38;21.40;99.90
25482;DHT22;13395;50.752;4.268;2023-07-30T07:45:07;21.20;99.90
25482;DHT22;13395;50.752;4.268;2023-07-30T07:47:33;21.10;99.90
25482;DHT22;13395;50.752;4.268;2023-07-30T07:49:58;20.90;99.90
25482;DHT22;13395;50.752;4.268;2023-07-30T07:52:24;20.70;99.90
25482;DHT22;13395;50.752;4.268;2023-07-30T07:54:49;20.70;99.90
25482;DHT22;13395;50.752;4.268;2023-07-30T07:57:15;20.60;99.90
25482;DHT22;13395;50.752;4.268;2023-07-30T07:59:40;20.70;99.90
25482;DHT22;13395;50.752;4.268;2023-07-30T08:04:45;20.90;99.90
25482;DHT22;13395;50.752;4.268;2023-07-30T08:07:11;21.00;99.90
25482;DHT22;13395;50.752;4.268;2023-07-30T08:09:36;21.10;99.90
25482;DHT22;13395;50.752;4.268;2023-07-30T08:12:02;21.30;99.90
25482;DHT22;13395;50.752;4.268;2023-07-30T08:48:14;21.50;99.90
25482;DHT22;13395;50.752;4.268;2023-07-30T08:50:40;22.00;99.90
25482;DHT22;13395;50.752;4.268;2023-07-30T08:53:07;22.30;99.90
25482;DHT22;13395;50.752;4.268;2023-07-30T08:55:34;22.00;99.90
25482;DHT22;13395;50.752;4.268;2023-07-30T08:58:02;21.80;99.90
25482;DHT22;13395;50.752;4.268;2023-07-30T09:00:31;21.40;99.90
25482;DHT22;13395;50.752;4.268;2023-07-30T09:03:03;21.10;99.90
25482;DHT22;13395;50.752;4.268;2023-07-30T09:05:29;20.90;99.90
25482;DHT22;13395;50.752;4.268;2023-07-30T09:07:56;20.60;99.90
25482;DHT22;13395;50.752;4.268;2023-07-30T09:10:23;20.50;99.90
25482;DHT22;13395;50.752;4.268;2023-07-30T09:12:58;20.40;99.90
25482;DHT22;13395;50.752;4.268;2023-07-30T09:15:35;20.40;99.90
25482;DHT22;13395;50.752;4.268;2023-07-30T09:18:03;20.40;99.90
25482;DHT22;13395;50.752;4.268;2023-07-30T09:20:40;20.40;99.90
25482;DHT22;13395;50.752;4.268;2023-07-30T09:23:07;20.30;99.90
25482;DHT22;13395;50.752;4.268;2023-07-30T09:25:33;20.30;99.90
25482;DHT22;13395;50.752;4.268;2023-07-30T09:27:59;20.50;99.90
25482;DHT22;13395;50.752;4.268;2023-07-30T09:33:00;21.50;99.90
25482;DHT22;13395;50.752;4.268;2023-07-30T09:35:26;22.40;99.90
25482;DHT22;13395;50.752;4.268;2023-07-30T09:37:59;22.80;99.90
25482;DHT22;13395;50.752;4.268;2023-07-30T09:40:36;22.70;99.90
25482;DHT22;13395;50.752;4.268;2023-07-30T09:43:03;22.70;99.90
25482;DHT22;13395;50.752;4.268;2023-07-30T09:45:33;22.80;99.90
25482;DHT22;13395;50.752;4.268;2023-07-30T09:48:02;22.80;99.90
25482;DHT22;13395;50.752;4.268;2023-07-30T09:50:29;22.60;99.90
25482;DHT22;13395;50.752;4.268;2023-07-30T09:52:54;22.40;99.90
25482;DHT22;13395;50.752;4.268;2023-07-30T09:55:20;22.50;99.90
25482;DHT22;13395;50.752;4.268;2023-07-30T09:57:46;22.40;99.90
25482;DHT22;13395;50.752;4.268;2023-07-30T10:00:12;22.20;99.90
25482;DHT22;13395;50.752;4.268;2023-07-30T10:02:48;21.90;99.90
25482;DHT22;13395;50.752;4.268;2023-07-30T10:05:16;21.90;99.90
25482;DHT22;13395;50.752;4.268;2023-07-30T10:07:48;22.10;99.90
25482;DHT22;13395;50.752;4.268;2023-07-30T10:10:14;22.70;99.90
25482;DHT22;13395;50.752;4.268;2023-07-30T10:12:41;23.10;99.90
25482;DHT22;13395;50.752;4.268;2023-07-30T10:15:08;23.20;99.90
25482;DHT22;13395;50.752;4.268;2023-07-30T10:17:34;23.30;99.90
25482;DHT22;13395;50.752;4.268;2023-07-30T10:20:20;23.90;99.90
25482;DHT22;13395;50.752;4.268;2023-07-30T10:22:46;25.10;99.90
25482;DHT22;13395;50.752;4.268;2023-07-30T10:25:13;25.80;99.30
25482;DHT22;13395;50.752;4.268;2023-07-30T10:27:41;26.40;97.50
25482;DHT22;13395;50.752;4.268;2023-07-30T10:35:08;25.80;96.70
25482;DHT22;13395;50.752;4.268;2023-07-30T10:37:34;25.00;97.90
25482;DHT22;13395;50.752;4.268;2023-07-30T10:40:00;24.40;99.40
25482;DHT22;13395;50.752;4.268;2023-07-30T10:42:35;23.90;99.90
25482;DHT22;13395;50.752;4.268;2023-07-30T10:45:00;23.60;99.90
25482;DHT22;13395;50.752;4.268;2023-07-30T10:47:29;23.00;99.90
25482;DHT22;13395;50.752;4.268;2023-07-30T10:50:01;22.90;99.90
25482;DHT22;13395;50.752;4.268;2023-07-30T10:52:27;23.00;99.90
25482;DHT22;13395;50.752;4.268;2023-07-30T10:55:00;22.80;99.90
25482;DHT22;13395;50.752;4.268;2023-07-30T10:57:33;22.90;99.90
25482;DHT22;13395;50.752;4.268;2023-07-30T11:00:02;23.20;99.90
25482;DHT22;13395;50.752;4.268;2023-07-30T11:02:28;23.90;99.90
25482;DHT22;13395;50.752;4.268;2023-07-30T11:04:55;25.70;99.90
25482;DHT22;13395;50.752;4.268;2023-07-30T11:07:20;26.30;98.20
25482;DHT22;13395;50.752;4.268;2023-07-30T11:09:58;27.00;96.50
25482;DHT22;13395;50.752;4.268;2023-07-30T11:12:24;28.20;93.50
25482;DHT22;13395;50.752;4.268;2023-07-30T11:14:49;29.00;91.50
25482;DHT22;13395;50.752;4.268;2023-07-30T11:17:18;29.50;92.10
25482;DHT22;13395;50.752;4.268;2023-07-30T11:19:43;29.50;90.20
25482;DHT22;13395;50.752;4.268;2023-07-30T11:22:09;29.20;87.50
25482;DHT22;13395;50.752;4.268;2023-07-30T11:24:36;29.00;86.60
25482;DHT22;13395;50.752;4.268;2023-07-30T11:27:02;29.00;83.90
25482;DHT22;13395;50.752;4.268;2023-07-30T11:29:28;29.00;84.20
25482;DHT22;13395;50.752;4.268;2023-07-30T11:31:58;29.60;82.70
25482;DHT22;13395;50.752;4.268;2023-07-30T11:34:25;29.30;81.40
25482;DHT22;13395;50.752;4.268;2023-07-30T11:36:52;29.50;81.00
25482;DHT22;13395;50.752;4.268;2023-07-30T11:39:18;30.40;80.70
25482;DHT22;13395;50.752;4.268;2023-07-30T11:41:44;29.70;79.60
25482;DHT22;13395;50.752;4.268;2023-07-30T11:44:34;29.40;80.40
25482;DHT22;13395;50.752;4.268;2023-07-30T11:47:00;28.90;80.00
25482;DHT22;13395;50.752;4.268;2023-07-30T11:49:25;28.20;81.70
25482;DHT22;13395;50.752;4.268;2023-07-30T11:51:51;27.70;83.40
25482;DHT22;13395;50.752;4.268;2023-07-30T11:54:28;28.10;84.40
25482;DHT22;13395;50.752;4.268;2023-07-30T11:56:56;28.30;83.00
25482;DHT22;13395;50.752;4.268;2023-07-30T11:59:22;27.50;83.00
25482;DHT22;13395;50.752;4.268;2023-07-30T12:01:48;27.30;83.70
25482;DHT22;13395;50.752;4.268;2023-07-30T12:04:14;28.10;83.60
25482;DHT22;13395;50.752;4.268;2023-07-30T12:06:47;27.80;83.20
25482;DHT22;13395;50.752;4.268;2023-07-30T12:11:47;26.50;87.00
25482;DHT22;13395;50.752;4.268;2023-07-30T12:14:14;26.80;89.70
25482;DHT22;13395;50.752;4.268;2023-07-30T12:16:40;27.50;89.40
25482;DHT22;13395;50.752;4.268;2023-07-30T12:19:05;28.70;89.70
25482;DHT22;13395;50.752;4.268;2023-07-30T12:21:31;28.90;82.10
25482;DHT22;13395;50.752;4.268;2023-07-30T12:23:56;28.70;81.40
25482;DHT22;13395;50.752;4.268;2023-07-30T12:26:22;29.40;86.30
25482;DHT22;13395;50.752;4.268;2023-07-30T12:28:47;29.70;81.70
25482;DHT22;13395;50.752;4.268;2023-07-30T12:31:13;29.20;80.30
25482;DHT22;13395;50.752;4.268;2023-07-30T12:33:38;29.30;86.40
25482;DHT22;13395;50.752;4.268;2023-07-30T12:36:04;28.40;83.00
25482;DHT22;13395;50.752;4.268;2023-07-30T12:38:30;27.30;83.50
25482;DHT22;13395;50.752;4.268;2023-07-30T12:40:56;26.70;87.40
25482;DHT22;13395;50.752;4.268;2023-07-30T12:43:21;26.50;86.60
25482;DHT22;13395;50.752;4.268;2023-07-30T12:45:47;26.20;85.10
25482;DHT22;13395;50.752;4.268;2023-07-30T12:48:13;26.00;85.00
25482;DHT22;13395;50.752;4.268;2023-07-30T12:50:39;26.30;84.90
25482;DHT22;13395;50.752;4.268;2023-07-30T12:53:04;27.10;84.90
25482;DHT22;13395;50.752;4.268;2023-07-30T12:55:30;28.10;81.10
25482;DHT22;13395;50.752;4.268;2023-07-30T12:57:55;29.00;79.70
25482;DHT22;13395;50.752;4.268;2023-07-30T13:00:21;29.10;78.30
25482;DHT22;13395;50.752;4.268;2023-07-30T13:02:46;29.10;76.90
25482;DHT22;13395;50.752;4.268;2023-07-30T13:05:12;28.90;76.40
25482;DHT22;13395;50.752;4.268;2023-07-30T13:07:39;28.50;75.60
25482;DHT22;13395;50.752;4.268;2023-07-30T13:10:09;28.30;77.80
25482;DHT22;13395;50.752;4.268;2023-07-30T13:12:35;27.50;76.70
25482;DHT22;13395;50.752;4.268;2023-07-30T13:15:01;27.30;80.00
25482;DHT22;13395;50.752;4.268;2023-07-30T13:17:28;26.80;83.40
25482;DHT22;13395;50.752;4.268;2023-07-30T13:19:53;26.50;83.20
25482;DHT22;13395;50.752;4.268;2023-07-30T13:22:19;26.30;84.80
25482;DHT22;13395;50.752;4.268;2023-07-30T13:24:44;25.90;83.00
25482;DHT22;13395;50.752;4.268;2023-07-30T13:27:10;25.70;85.80
25482;DHT22;13395;50.752;4.268;2023-07-30T13:29:36;25.90;86.70
25482;DHT22;13395;50.752;4.268;2023-07-30T13:32:02;26.00;83.20
25482;DHT22;13395;50.752;4.268;2023-07-30T13:34:27;25.50;82.50
25482;DHT22;13395;50.752;4.268;2023-07-30T13:36:53;25.60;85.80
25482;DHT22;13395;50.752;4.268;2023-07-30T13:39:18;25.50;84.30
25482;DHT22;13395;50.752;4.268;2023-07-30T13:41:44;25.10;84.30
25482;DHT22;13395;50.752;4.268;2023-07-30T13:44:10;25.20;86.70
25482;DHT22;13395;50.752;4.268;2023-07-30T13:46:37;24.70;86.70
25482;DHT22;13395;50.752;4.268;2023-07-30T13:49:02;24.50;88.20
25482;DHT22;13395;50.752;4.268;2023-07-30T13:51:28;24.40;88.80
25482;DHT22;13395;50.752;4.268;2023-07-30T13:54:01;24.40;90.10
25482;DHT22;13395;50.752;4.268;2023-07-30T13:56:28;24.30;90.10
25482;DHT22;13395;50.752;4.268;2023-07-30T13:58:54;24.40;90.40
25482;DHT22;13395;50.752;4.268;2023-07-30T14:01:20;24.70;90.10
25482;DHT22;13395;50.752;4.268;2023-07-30T14:03:45;24.80;90.60
25482;DHT22;13395;50.752;4.268;2023-07-30T14:06:11;25.10;90.50
25482;DHT22;13395;50.752;4.268;2023-07-30T14:08:37;25.20;89.70
25482;DHT22;13395;50.752;4.268;2023-07-30T14:11:03;25.20;90.00
25482;DHT22;13395;50.752;4.268;2023-07-30T14:13:28;25.20;88.10
25482;DHT22;13395;50.752;4.268;2023-07-30T14:15:54;25.10;88.60
25482;DHT22;13395;50.752;4.268;2023-07-30T14:18:21;24.80;90.00
25482;DHT22;13395;50.752;4.268;2023-07-30T14:20:47;24.60;91.00
25482;DHT22;13395;50.752;4.268;2023-07-30T14:23:13;24.60;91.50
25482;DHT22;13395;50.752;4.268;2023-07-30T14:25:38;24.70;91.90
25482;DHT22;13395;50.752;4.268;2023-07-30T14:28:04;24.80;91.20
25482;DHT22;13395;50.752;4.268;2023-07-30T14:30:30;24.60;91.20
25482;DHT22;13395;50.752;4.268;2023-07-30T14:32:56;24.50;91.80
25482;DHT22;13395;50.752;4.268;2023-07-30T14:35:22;24.30;92.40
25482;DHT22;13395;50.752;4.268;2023-07-30T14:37:48;24.20;93.00
25482;DHT22;13395;50.752;4.268;2023-07-30T14:40:14;24.00;93.50
25482;DHT22;13395;50.752;4.268;2023-07-30T14:42:40;23.90;93.50
25482;DHT22;13395;50.752;4.268;2023-07-30T14:45:06;23.70;94.30
25482;DHT22;13395;50.752;4.268;2023-07-30T14:47:32;23.60;94.40
25482;DHT22;13395;50.752;4.268;2023-07-30T14:49:58;23.40;94.40
25482;DHT22;13395;50.752;4.268;2023-07-30T14:52:24;23.20;95.10
25482;DHT22;13395;50.752;4.268;2023-07-30T14:54:49;22.90;96.20
25482;DHT22;13395;50.752;4.268;2023-07-30T14:57:16;22.80;97.60
25482;DHT22;13395;50.752;4.268;2023-07-30T14:59:41;22.80;97.10
25482;DHT22;13395;50.752;4.268;2023-07-30T15:02:07;22.90;97.40
25482;DHT22;13395;50.752;4.268;2023-07-30T15:04:32;23.00;97.60
25482;DHT22;13395;50.752;4.268;2023-07-30T15:06:58;23.10;97.60
25482;DHT22;13395;50.752;4.268;2023-07-30T15:09:23;23.10;97.60
25482;DHT22;13395;50.752;4.268;2023-07-30T15:11:49;23.00;97.70
25482;DHT22;13395;50.752;4.268;2023-07-30T15:14:15;23.10;97.00
25482;DHT22;13395;50.752;4.268;2023-07-30T15:16:40;23.00;98.00
25482;DHT22;13395;50.752;4.268;2023-07-30T15:19:06;22.90;98.50
25482;DHT22;13395;50.752;4.268;2023-07-30T15:21:31;22.90;98.00
25482;DHT22;13395;50.752;4.268;2023-07-30T15:23:57;22.90;97.70
25482;DHT22;13395;50.752;4.268;2023-07-30T15:26:26;22.80;98.00
25482;DHT22;13395;50.752;4.268;2023-07-30T15:28:51;22.70;98.90
25482;DHT22;13395;50.752;4.268;2023-07-30T15:31:17;22.50;98.90
25482;DHT22;13395;50.752;4.268;2023-07-30T15:33:42;22.40;99.60
25482;DHT22;13395;50.752;4.268;2023-07-30T15:36:08;22.40;99.90
25482;DHT22;13395;50.752;4.268;2023-07-30T15:38:34;22.40;99.90
25482;DHT22;13395;50.752;4.268;2023-07-30T15:41:00;22.30;99.90
25482;DHT22;13395;50.752;4.268;2023-07-30T15:43:26;22.20;99.90
25482;DHT22;13395;50.752;4.268;2023-07-30T15:45:52;22.00;99.90
25482;DHT22;13395;50.752;4.268;2023-07-30T15:48:19;21.90;99.90
25482;DHT22;13395;50.752;4.268;2023-07-30T15:50:45;21.80;99.90
25482;DHT22;13395;50.752;4.268;2023-07-30T15:53:10;21.80;99.90
25482;DHT22;13395;50.752;4.268;2023-07-30T15:55:36;21.60;99.90
25482;DHT22;13395;50.752;4.268;2023-07-30T15:58:02;21.60;99.90
25482;DHT22;13395;50.752;4.268;2023-07-30T16:00:27;21.70;99.90
25482;DHT22;13395;50.752;4.268;2023-07-30T16:02:53;21.70;99.90
25482;DHT22;13395;50.752;4.268;2023-07-30T16:05:19;21.60;99.90
25482;DHT22;13395;50.752;4.268;2023-07-30T16:07:45;21.30;99.90
25482;DHT22;13395;50.752;4.268;2023-07-30T16:10:10;21.10;99.90
25482;DHT22;13395;50.752;4.268;2023-07-30T16:12:36;21.10;99.90
25482;DHT22;13395;50.752;4.268;2023-07-30T16:15:02;21.10;99.90
25482;DHT22;13395;50.752;4.268;2023-07-30T16:17:28;21.00;99.90
25482;DHT22;13395;50.752;4.268;2023-07-30T16:19:55;21.10;99.90
25482;DHT22;13395;50.752;4.268;2023-07-30T16:22:20;21.20;99.90
25482;DHT22;13395;50.752;4.268;2023-07-30T16:24:46;21.10;99.90
25482;DHT22;13395;50.752;4.268;2023-07-30T16:27:13;20.90;99.90
25482;DHT22;13395;50.752;4.268;2023-07-30T16:29:39;20.90;99.90
25482;DHT22;13395;50.752;4.268;2023-07-30T16:32:05;20.80;99.90
25482;DHT22;13395;50.752;4.268;2023-07-30T16:34:31;20.80;99.90
25482;DHT22;13395;50.752;4.268;2023-07-30T16:36:56;20.70;99.90
25482;DHT22;13395;50.752;4.268;2023-07-30T16:39:22;20.70;99.90
25482;DHT22;13395;50.752;4.268;2023-07-30T16:41:47;20.80;99.90
25482;DHT22;13395;50.752;4.268;2023-07-30T16:44:13;20.70;99.90
25482;DHT22;13395;50.752;4.268;2023-07-30T16:46:38;20.60;99.90
25482;DHT22;13395;50.752;4.268;2023-07-30T16:49:04;20.50;99.90
25482;DHT22;13395;50.752;4.268;2023-07-30T16:51:30;20.50;99.90
25482;DHT22;13395;50.752;4.268;2023-07-30T16:53:55;20.40;99.90
25482;DHT22;13395;50.752;4.268;2023-07-30T16:56:22;20.30;99.90
25482;DHT22;13395;50.752;4.268;2023-07-30T16:58:47;20.30;99.90
25482;DHT22;13395;50.752;4.268;2023-07-30T17:01:13;20.10;99.90
25482;DHT22;13395;50.752;4.268;2023-07-30T17:03:39;20.00;99.90
25482;DHT22;13395;50.752;4.268;2023-07-30T17:06:06;20.00;99.90
25482;DHT22;13395;50.752;4.268;2023-07-30T17:08:32;19.80;99.90
25482;DHT22;13395;50.752;4.268;2023-07-30T17:11:01;19.70;99.90
25482;DHT22;13395;50.752;4.268;2023-07-30T17:13:27;19.60;99.90
25482;DHT22;13395;50.752;4.268;2023-07-30T17:15:53;19.50;99.90
25482;DHT22;13395;50.752;4.268;2023-07-30T17:18:20;19.40;99.90
25482;DHT22;13395;50.752;4.268;2023-07-30T17:20:55;19.30;99.90
25482;DHT22;13395;50.752;4.268;2023-07-30T17:23:22;19.30;99.90
25482;DHT22;13395;50.752;4.268;2023-07-30T17:25:55;19.20;99.90